CXR weather

Cam Ranh Airport
Nha Trang, Khanh Hoa Province, Vietnam

Public forecast

Using degrees Celsius for public forecast. Weather courtesy of forecast.io.

Current aviation weather report (METAR) for Cam Ranh Airport

Retrieved 2019/10/21 19:30 UTC (9 minutes ago):

VVCR 211930Z 33005KT 9999 FEW015 26/24 Q1009 NOSIG

Aviation forecast (TAF) for Cam Ranh Airport

Retrieved 2019/10/21 18:00 UTC (2 hours ago):

TAF VVCR 211700Z 2118/2218 04010KT 9999 FEW015 SCT050